createdAt,value
2022-07-29T00:00:26.314Z,100015.72
2022-07-29T00:02:54.174Z,100018.69
2022-07-29T00:05:22.783Z,100013.00
2022-07-29T00:07:50.497Z,100017.63
2022-07-29T00:10:18.355Z,100017.94
2022-07-29T00:12:46.016Z,100010.37
2022-07-29T00:15:15.730Z,100007.53
2022-07-29T00:17:43.297Z,100011.94
2022-07-29T00:20:11.654Z,100016.66
2022-07-29T00:22:41.054Z,100010.97
2022-07-29T00:25:11.018Z,100009.69
2022-07-29T00:27:41.457Z,100012.00
2022-07-29T00:30:09.799Z,100018.69
2022-07-29T00:32:37.366Z,100021.47
2022-07-29T00:35:26.054Z,100021.94
2022-07-29T00:37:53.854Z,100021.94
2022-07-29T00:40:23.484Z,100019.50
2022-07-29T00:42:53.242Z,100028.16
2022-07-29T00:45:22.900Z,100021.34
2022-07-29T00:47:51.192Z,100013.69
2022-07-29T00:50:18.955Z,100016.66
2022-07-29T00:52:46.645Z,100010.78
2022-07-29T00:55:16.893Z,100021.72
2022-07-29T00:57:45.963Z,100013.72
2022-07-29T01:00:20.412Z,100020.41
2022-07-29T01:02:49.454Z,100020.16
2022-07-29T01:05:19.944Z,100013.00
2022-07-29T01:07:49.518Z,99997.84
2022-07-29T01:10:18.187Z,100009.41
2022-07-29T01:12:48.413Z,100007.19
2022-07-29T01:15:16.437Z,100006.22
2022-07-29T01:18:09.201Z,100011.94
2022-07-29T01:20:55.602Z,100004.28
2022-07-29T01:23:40.939Z,100008.22
2022-07-29T01:26:32.681Z,100016.53
2022-07-29T01:29:15.783Z,100002.50
2022-07-29T01:32:01.126Z,100002.97
2022-07-29T01:34:42.429Z,99998.94
2022-07-29T01:37:17.783Z,99996.00
2022-07-29T01:39:48.885Z,100006.59
2022-07-29T01:42:50.499Z,100002.69
2022-07-29T01:45:20.719Z,100002.50
2022-07-29T01:48:28.961Z,100001.38
2022-07-29T01:51:09.626Z,100003.63
2022-07-29T01:53:46.285Z,100001.69
2022-07-29T01:56:20.827Z,99998.75
2022-07-29T01:58:51.815Z,99996.66
2022-07-29T02:01:23.512Z,100000.28
2022-07-29T02:03:52.586Z,99990.88
2022-07-29T02:06:24.671Z,99996.44
2022-07-29T02:08:57.778Z,99999.59
2022-07-29T02:11:25.630Z,99995.84
2022-07-29T02:13:55.709Z,100000.44
2022-07-29T02:16:24.792Z,99998.81
2022-07-29T02:18:56.120Z,99994.72
2022-07-29T02:21:29.370Z,99991.81
2022-07-29T02:24:01.547Z,99997.34
2022-07-29T02:26:31.199Z,99988.09
2022-07-29T02:29:01.091Z,99989.56
2022-07-29T02:31:34.558Z,99993.81
2022-07-29T02:34:05.498Z,99992.84
2022-07-29T02:36:34.732Z,99988.78
2022-07-29T02:39:03.691Z,99983.13
2022-07-29T02:41:45.659Z,99988.16
2022-07-29T02:44:17.377Z,99993.19
2022-07-29T02:47:01.372Z,99980.16
2022-07-29T02:49:50.134Z,99987.03
2022-07-29T02:52:28.139Z,99981.50
2022-07-29T02:55:27.962Z,99986.22
2022-07-29T02:58:23.638Z,99987.84
2022-07-29T03:00:53.558Z,99987.38
2022-07-29T03:03:22.844Z,99987.38
2022-07-29T03:05:50.482Z,99987.19
2022-07-29T03:08:18.627Z,99987.19
2022-07-29T03:10:48.318Z,99987.53
2022-07-29T03:13:16.720Z,99979.56
2022-07-29T03:15:46.193Z,99982.00
2022-07-29T03:18:14.549Z,99977.75
2022-07-29T03:20:42.400Z,99990.28
2022-07-29T03:23:10.323Z,99984.59
2022-07-29T03:25:37.932Z,99989.81
2022-07-29T03:28:05.702Z,99993.72
2022-07-29T03:30:35.635Z,99996.31
2022-07-29T03:33:03.172Z,99996.81
2022-07-29T03:35:41.226Z,99991.75
2022-07-29T03:38:09.086Z,99985.41
2022-07-29T03:40:57.059Z,99989.81
2022-07-29T03:43:32.815Z,99986.88
2022-07-29T03:46:02.729Z,99988.34
2022-07-29T03:48:34.980Z,99991.44
2022-07-29T03:51:02.614Z,99982.84
2022-07-29T03:53:30.796Z,100000.72
2022-07-29T03:56:04.278Z,99998.75
2022-07-29T03:58:33.459Z,99992.56
2022-07-29T04:01:03.853Z,99990.16
2022-07-29T04:03:31.858Z,99994.53
2022-07-29T04:06:01.572Z,99992.25
2022-07-29T04:08:31.546Z,99996.97
2022-07-29T04:11:01.642Z,99999.88
2022-07-29T04:13:29.357Z,100005.91
2022-07-29T04:15:57.164Z,99999.38
2022-07-29T04:18:24.907Z,100003.91
2022-07-29T04:20:52.656Z,100004.44
2022-07-29T04:23:20.240Z,99997.41
2022-07-29T04:25:48.108Z,100005.38
2022-07-29T04:28:15.858Z,100007.53
2022-07-29T04:30:44.837Z,100000.50
2022-07-29T04:33:12.999Z,100014.16
2022-07-29T04:35:49.842Z,99996.56
2022-07-29T04:38:21.178Z,99999.63
2022-07-29T04:40:49.815Z,100000.09
2022-07-29T04:43:22.397Z,100006.91
2022-07-29T04:45:50.573Z,100002.00
2022-07-29T04:48:18.268Z,100008.50
2022-07-29T04:50:48.292Z,100004.88
2022-07-29T04:53:15.894Z,100007.16
2022-07-29T04:55:43.480Z,100007.09
2022-07-29T04:58:11.059Z,100002.97
2022-07-29T05:00:39.137Z,100011.16
2022-07-29T05:03:07.850Z,100004.84
2022-07-29T05:05:35.711Z,100005.47
2022-07-29T05:08:03.353Z,100011.13
2022-07-29T05:10:31.052Z,100011.91
2022-07-29T05:12:58.579Z,100013.00
2022-07-29T05:15:26.205Z,100004.94
2022-07-29T05:17:53.788Z,100010.41
2022-07-29T05:20:27.365Z,100012.28
2022-07-29T05:22:54.963Z,100018.31
2022-07-29T05:25:23.336Z,100020.22
2022-07-29T05:27:51.575Z,100014.38
2022-07-29T05:30:21.058Z,100015.25
2022-07-29T05:32:48.677Z,100007.88
2022-07-29T05:35:18.279Z,100013.06
2022-07-29T05:37:45.928Z,99995.94
2022-07-29T05:40:13.607Z,100012.50
2022-07-29T05:42:41.196Z,100013.75
2022-07-29T05:45:12.320Z,100016.94
2022-07-29T05:47:42.230Z,100026.91
2022-07-29T05:50:10.602Z,100028.56
2022-07-29T05:52:38.162Z,100024.19
2022-07-29T05:55:06.677Z,100020.91
2022-07-29T05:57:34.539Z,100025.12
2022-07-29T06:00:02.129Z,100024.59
2022-07-29T06:02:29.698Z,100020.72
2022-07-29T06:05:00.355Z,100031.81
2022-07-29T06:07:27.935Z,100024.63
2022-07-29T06:09:55.607Z,100040.72
2022-07-29T06:12:24.456Z,100025.91
2022-07-29T06:14:54.198Z,100035.84
2022-07-29T06:17:25.380Z,100035.78
2022-07-29T06:19:53.079Z,100032.56
2022-07-29T06:22:20.665Z,100030.87
2022-07-29T06:24:48.263Z,100035.62
2022-07-29T06:27:15.845Z,100037.34
2022-07-29T06:29:43.419Z,100040.66
2022-07-29T06:32:11.008Z,100039.31
2022-07-29T06:34:38.592Z,100047.66
2022-07-29T06:37:15.625Z,100048.22
2022-07-29T06:39:43.474Z,100052.34
2022-07-29T06:42:11.322Z,100044.34
2022-07-29T06:44:38.858Z,100045.25
2022-07-29T06:47:06.516Z,100049.84
2022-07-29T06:49:34.137Z,100052.97
2022-07-29T06:52:04.871Z,100051.06
2022-07-29T06:54:32.428Z,100054.13
2022-07-29T06:57:00.139Z,100054.37
2022-07-29T06:59:33.548Z,100056.44
2022-07-29T07:02:03.382Z,100047.44
2022-07-29T07:04:33.488Z,100048.62
2022-07-29T07:07:01.575Z,100046.28
2022-07-29T07:09:40.001Z,100044.06
2022-07-29T07:12:10.834Z,100044.41
2022-07-29T07:14:41.950Z,100051.56
2022-07-29T07:17:11.718Z,100044.50
2022-07-29T07:19:39.302Z,100046.44
2022-07-29T07:22:06.936Z,100040.22
2022-07-29T07:24:34.552Z,100045.38
2022-07-29T07:27:02.857Z,100036.87
2022-07-29T07:29:32.861Z,100038.97
2022-07-29T07:32:01.073Z,100034.72
2022-07-29T07:34:29.552Z,100043.81
2022-07-29T07:36:57.406Z,100042.66
2022-07-29T07:39:27.934Z,100049.88
2022-07-29T07:41:55.632Z,100044.06
2022-07-29T07:44:23.778Z,100032.47
2022-07-29T07:46:51.544Z,100034.25
2022-07-29T07:49:20.102Z,100034.50
2022-07-29T07:51:50.540Z,100037.00
2022-07-29T07:54:20.758Z,100026.69
2022-07-29T07:56:50.893Z,100045.16
2022-07-29T07:59:21.143Z,100023.81
2022-07-29T08:01:55.622Z,100034.66
2022-07-29T08:04:28.631Z,100040.59
2022-07-29T08:06:58.118Z,100027.13
2022-07-29T08:09:29.858Z,100031.56
2022-07-29T08:11:59.218Z,100029.53
2022-07-29T08:14:29.321Z,100031.91
2022-07-29T08:16:56.924Z,100033.00
2022-07-29T08:19:24.742Z,100034.16
2022-07-29T08:21:55.526Z,100030.16
2022-07-29T08:24:41.657Z,100030.59
2022-07-29T08:27:33.357Z,100024.63
2022-07-29T08:29:59.119Z,100033.94
2022-07-29T08:32:52.146Z,100029.72
2022-07-29T08:35:17.284Z,100032.50
2022-07-29T08:37:44.958Z,100032.69
2022-07-29T08:40:13.207Z,100025.88
2022-07-29T08:42:40.767Z,100029.72
2022-07-29T08:45:09.533Z,100025.62
2022-07-29T08:47:40.888Z,100030.59
2022-07-29T08:50:10.487Z,100026.84
2022-07-29T08:52:40.647Z,100019.03
2022-07-29T08:55:10.611Z,100016.13
2022-07-29T08:57:43.396Z,100021.06
2022-07-29T09:00:20.170Z,100013.22
2022-07-29T09:02:53.205Z,100016.44
2022-07-29T09:05:24.797Z,100015.28
2022-07-29T09:07:53.520Z,100008.28
2022-07-29T09:10:23.390Z,100008.03
2022-07-29T09:12:50.941Z,100009.09
2022-07-29T09:15:19.590Z,100013.13
2022-07-29T09:17:51.845Z,100017.38
2022-07-29T09:20:22.559Z,100009.59
2022-07-29T09:22:51.837Z,100005.81
2022-07-29T09:25:37.734Z,100005.22
2022-07-29T09:28:17.409Z,100002.91
2022-07-29T09:30:56.494Z,99999.75
2022-07-29T09:33:35.417Z,99998.16
2022-07-29T09:36:08.765Z,99989.00
2022-07-29T09:38:37.672Z,99987.50
2022-07-29T09:41:07.619Z,99982.00
2022-07-29T09:43:35.940Z,99981.91
2022-07-29T09:46:13.979Z,99977.50
2022-07-29T09:48:41.680Z,99987.38
2022-07-29T09:51:24.187Z,99974.53
2022-07-29T09:53:55.212Z,99972.75
2022-07-29T09:56:45.234Z,99970.31
2022-07-29T09:59:13.216Z,99972.66
2022-07-29T10:01:40.828Z,99964.84
2022-07-29T10:04:10.090Z,99969.25
2022-07-29T10:07:03.969Z,99968.91
2022-07-29T10:09:32.955Z,99967.88
2022-07-29T10:12:15.518Z,99956.31
2022-07-29T10:14:44.561Z,99961.84
2022-07-29T10:17:13.706Z,99962.16
2022-07-29T10:19:42.908Z,99960.75
2022-07-29T10:22:13.161Z,99965.63
2022-07-29T10:24:41.039Z,99960.50
2022-07-29T10:27:12.462Z,99954.41
2022-07-29T10:29:40.066Z,99947.56
2022-07-29T10:32:22.879Z,99954.47
2022-07-29T10:35:29.300Z,99949.63
2022-07-29T10:38:32.549Z,99946.94
2022-07-29T10:41:36.397Z,99935.72
2022-07-29T10:44:19.174Z,99937.47
2022-07-29T10:46:47.841Z,99940.34
2022-07-29T10:49:17.107Z,99922.72
2022-07-29T10:52:06.160Z,99936.75
2022-07-29T10:54:43.854Z,99937.53
2022-07-29T10:57:15.034Z,99930.66
2022-07-29T10:59:48.273Z,99928.03
2022-07-29T11:02:54.755Z,99925.22
2022-07-29T11:05:32.188Z,99926.34
2022-07-29T11:08:20.447Z,99907.28
2022-07-29T11:10:50.249Z,99915.25
2022-07-29T11:13:47.222Z,99912.22
2022-07-29T11:16:17.566Z,99901.75
2022-07-29T11:19:14.076Z,99901.66
2022-07-29T11:21:53.521Z,99892.66
2022-07-29T11:24:34.780Z,99899.00
2022-07-29T11:27:18.199Z,99907.47
2022-07-29T11:29:58.890Z,99892.81
2022-07-29T11:32:39.846Z,99885.94
2022-07-29T11:35:19.024Z,99885.75
2022-07-29T11:37:52.678Z,99883.19
2022-07-29T11:40:26.941Z,99880.28
2022-07-29T11:42:55.199Z,99875.72
2022-07-29T11:45:43.266Z,99869.78
2022-07-29T11:48:29.197Z,99873.03
2022-07-29T11:51:03.903Z,99862.16
2022-07-29T11:53:36.215Z,99862.88
2022-07-29T11:56:06.522Z,99865.00
2022-07-29T11:58:34.434Z,99858.91
2022-07-29T12:01:04.948Z,99863.75
2022-07-29T12:04:06.844Z,99859.66
2022-07-29T12:06:37.468Z,99865.06
2022-07-29T12:09:14.761Z,99860.50
2022-07-29T12:11:42.848Z,99855.41
2022-07-29T12:14:27.399Z,99856.06
2022-07-29T12:16:55.195Z,99849.47
2022-07-29T12:19:23.592Z,99868.28
2022-07-29T12:21:59.803Z,99843.59
2022-07-29T12:24:46.866Z,99841.75
2022-07-29T12:27:19.471Z,99847.59
2022-07-29T12:30:02.876Z,99842.75
2022-07-29T12:32:39.722Z,99841.84
2022-07-29T12:35:12.338Z,99838.91
2022-07-29T12:37:42.616Z,99825.34
2022-07-29T12:40:13.641Z,99819.22
2022-07-29T12:42:41.774Z,99814.16
2022-07-29T12:45:09.887Z,99809.75
2022-07-29T12:47:53.543Z,99804.31
2022-07-29T12:50:26.138Z,99805.19
2022-07-29T12:52:56.859Z,99801.59
2022-07-29T12:55:44.380Z,99802.22
2022-07-29T12:58:12.589Z,99788.44
2022-07-29T13:00:41.018Z,99790.84
2022-07-29T13:03:11.366Z,99789.06
2022-07-29T13:05:49.458Z,99789.31
2022-07-29T13:08:21.917Z,99795.44
2022-07-29T13:10:50.529Z,99793.34
2022-07-29T13:13:18.730Z,99799.78
2022-07-29T13:15:48.852Z,99791.19
2022-07-29T13:18:33.239Z,99786.88
2022-07-29T13:21:16.533Z,99788.09
2022-07-29T13:23:45.402Z,99782.00
2022-07-29T13:26:13.748Z,99776.06
2022-07-29T13:28:43.984Z,99777.41
2022-07-29T13:31:12.192Z,99773.22
2022-07-29T13:33:39.794Z,99771.44
2022-07-29T13:36:08.015Z,99763.75
2022-07-29T13:38:37.903Z,99758.44
2022-07-29T13:41:05.644Z,99766.38
2022-07-29T13:43:36.089Z,99756.25
2022-07-29T13:46:03.768Z,99757.50
2022-07-29T13:48:31.434Z,99753.94
2022-07-29T13:50:59.076Z,99755.28
2022-07-29T13:53:29.672Z,99751.38
2022-07-29T13:55:57.329Z,99745.09
2022-07-29T13:58:25.286Z,99746.31
2022-07-29T14:00:52.930Z,99745.38
2022-07-29T14:03:20.756Z,99739.31
2022-07-29T14:05:48.306Z,99730.44
2022-07-29T14:08:18.172Z,99734.47
2022-07-29T14:10:45.705Z,99735.88
2022-07-29T14:13:24.390Z,99733.06
2022-07-29T14:15:53.086Z,99732.97
2022-07-29T14:18:20.681Z,99726.47
2022-07-29T14:20:48.238Z,99723.69
2022-07-29T14:23:16.404Z,99729.00
2022-07-29T14:25:44.558Z,99720.09
2022-07-29T14:28:14.709Z,99714.00
2022-07-29T14:30:42.741Z,99716.78
2022-07-29T14:33:10.467Z,99716.41
2022-07-29T14:35:38.158Z,99725.81
2022-07-29T14:38:05.737Z,99720.22
2022-07-29T14:40:33.503Z,99711.78
2022-07-29T14:43:03.817Z,99705.69
2022-07-29T14:45:32.494Z,99702.03
2022-07-29T14:48:00.866Z,99712.19
2022-07-29T14:50:31.758Z,99700.94
2022-07-29T14:53:00.428Z,99696.50
2022-07-29T14:55:28.441Z,99692.91
2022-07-29T14:58:03.246Z,99680.47
2022-07-29T15:00:38.685Z,99681.66
2022-07-29T15:03:06.813Z,99678.03
2022-07-29T15:05:39.259Z,99671.19
2022-07-29T15:08:09.066Z,99669.56
2022-07-29T15:10:37.007Z,99674.81
2022-07-29T15:13:04.663Z,99672.81
2022-07-29T15:15:32.865Z,99675.63
2022-07-29T15:18:00.554Z,99669.62
2022-07-29T15:20:28.295Z,99675.28
2022-07-29T15:22:56.870Z,99674.09
2022-07-29T15:25:26.344Z,99664.03
2022-07-29T15:28:00.806Z,99660.03
2022-07-29T15:30:32.722Z,99664.03
2022-07-29T15:33:03.542Z,99657.22
2022-07-29T15:35:31.323Z,99660.03
2022-07-29T15:37:58.870Z,99659.59
2022-07-29T15:40:26.698Z,99659.25
2022-07-29T15:42:54.248Z,99660.88
2022-07-29T15:45:21.959Z,99651.28
2022-07-29T15:47:49.675Z,99646.53
2022-07-29T15:50:17.486Z,99647.31
2022-07-29T15:52:45.086Z,99642.50
2022-07-29T15:55:12.650Z,99635.28
2022-07-29T15:57:40.866Z,99643.25
2022-07-29T16:00:10.348Z,99646.88
2022-07-29T16:02:38.031Z,99642.50
2022-07-29T16:05:09.302Z,99641.75
2022-07-29T16:07:37.723Z,99634.53
2022-07-29T16:10:07.836Z,99629.75
2022-07-29T16:12:35.569Z,99637.00
2022-07-29T16:15:08.949Z,99639.41
2022-07-29T16:17:37.745Z,99640.63
2022-07-29T16:20:06.829Z,99635.78
2022-07-29T16:22:34.440Z,99636.59
2022-07-29T16:25:04.334Z,99637.00
2022-07-29T16:27:37.759Z,99629.75
2022-07-29T16:30:08.685Z,99638.19
2022-07-29T16:32:36.453Z,99630.22
2022-07-29T16:35:05.352Z,99631.00
2022-07-29T16:37:35.371Z,99627.81
2022-07-29T16:40:03.566Z,99627.81
2022-07-29T16:42:48.917Z,99626.25
2022-07-29T16:45:21.405Z,99630.66
2022-07-29T16:47:51.492Z,99631.44
2022-07-29T16:50:20.214Z,99633.03
2022-07-29T16:52:47.783Z,99629.47
2022-07-29T16:55:15.387Z,99622.63
2022-07-29T16:57:43.812Z,99619.06
2022-07-29T17:00:11.966Z,99617.00
2022-07-29T17:02:41.710Z,99628.25
2022-07-29T17:05:10.627Z,99623.00
2022-07-29T17:07:41.266Z,99625.81
2022-07-29T17:10:10.315Z,99623.00
2022-07-29T17:12:40.035Z,99624.16
2022-07-29T17:15:10.143Z,99622.91
2022-07-29T17:17:56.530Z,99627.25
2022-07-29T17:20:26.654Z,99619.56
2022-07-29T17:22:54.919Z,99629.47
2022-07-29T17:25:24.127Z,99630.19
2022-07-29T17:28:01.254Z,99622.97
2022-07-29T17:30:29.570Z,99631.69
2022-07-29T17:32:57.254Z,99622.78
2022-07-29T17:35:42.312Z,99632.63
2022-07-29T17:38:09.923Z,99629.72
2022-07-29T17:40:38.118Z,99626.38
2022-07-29T17:43:09.306Z,99622.28
2022-07-29T17:45:50.266Z,99627.69
2022-07-29T17:48:18.935Z,99630.78
2022-07-29T17:50:47.517Z,99628.22
2022-07-29T17:53:17.990Z,99631.31
2022-07-29T17:55:48.582Z,99631.12
2022-07-29T17:58:17.192Z,99623.78
2022-07-29T18:01:05.113Z,99629.59
2022-07-29T18:03:44.635Z,99627.03
2022-07-29T18:06:12.421Z,99636.44
2022-07-29T18:08:49.299Z,99639.88
2022-07-29T18:11:16.915Z,99640.50
2022-07-29T18:13:44.830Z,99635.13
2022-07-29T18:16:15.190Z,99648.91
2022-07-29T18:18:45.141Z,99640.78
2022-07-29T18:21:15.108Z,99646.19
2022-07-29T18:23:42.765Z,99646.88
2022-07-29T18:26:12.055Z,99645.13
2022-07-29T18:28:41.975Z,99648.53
2022-07-29T18:31:10.104Z,99644.44
2022-07-29T18:33:45.460Z,99646.25
2022-07-29T18:36:13.057Z,99653.31
2022-07-29T18:38:41.821Z,99654.00
2022-07-29T18:41:09.906Z,99648.31
2022-07-29T18:43:37.515Z,99660.19
2022-07-29T18:46:06.664Z,99655.41
2022-07-29T18:48:38.468Z,99659.00
2022-07-29T18:51:09.474Z,99658.19
2022-07-29T18:53:37.485Z,99662.59
2022-07-29T18:56:05.373Z,99663.41
2022-07-29T18:58:33.343Z,99664.19
2022-07-29T19:01:01.950Z,99667.44
2022-07-29T19:03:29.521Z,99673.13
2022-07-29T19:05:57.132Z,99671.16
2022-07-29T19:08:24.732Z,99672.25
2022-07-29T19:10:55.684Z,99687.06
2022-07-29T19:13:23.800Z,99695.75
2022-07-29T19:15:53.996Z,99703.81
2022-07-29T19:18:21.686Z,99695.87
2022-07-29T19:20:54.269Z,99706.56
2022-07-29T19:23:21.882Z,99704.31
2022-07-29T19:25:53.651Z,99709.16
2022-07-29T19:28:21.996Z,99710.69
2022-07-29T19:30:50.203Z,99704.31
2022-07-29T19:33:21.931Z,99703.47
2022-07-29T19:35:54.579Z,99709.91
2022-07-29T19:38:22.777Z,99707.75
2022-07-29T19:40:50.458Z,99700.88
2022-07-29T19:43:50.353Z,99699.97
2022-07-29T19:46:10.222Z,99694.34
2022-07-29T19:48:40.405Z,99690.69
2022-07-29T19:51:10.462Z,99696.53
2022-07-29T19:53:45.931Z,99690.09
2022-07-29T19:56:16.602Z,99688.37
2022-07-29T19:58:45.275Z,99691.47
2022-07-29T20:01:20.223Z,99695.66
2022-07-29T20:03:47.790Z,99690.47
2022-07-29T20:06:15.457Z,99686.78
2022-07-29T20:08:42.996Z,99683.13
2022-07-29T20:11:10.566Z,99683.50
2022-07-29T20:13:38.242Z,99688.56
2022-07-29T20:16:08.215Z,99687.78
2022-07-29T20:18:38.290Z,99692.09
2022-07-29T20:21:05.866Z,99690.03
2022-07-29T20:23:33.698Z,99701.91
2022-07-29T20:26:01.405Z,99699.44
2022-07-29T20:28:29.051Z,99706.19
2022-07-29T20:30:56.950Z,99703.75
2022-07-29T20:33:26.933Z,99704.44
2022-07-29T20:35:54.673Z,99703.13
2022-07-29T20:38:22.255Z,99714.53
2022-07-29T20:40:53.974Z,99717.16
2022-07-29T20:43:23.879Z,99721.56
2022-07-29T20:45:51.507Z,99717.53
2022-07-29T20:48:21.741Z,99721.78
2022-07-29T20:50:52.918Z,99724.03
2022-07-29T20:53:20.602Z,99727.88
2022-07-29T20:55:48.134Z,99728.25
2022-07-29T20:58:15.682Z,99725.81
2022-07-29T21:00:43.435Z,99740.03
2022-07-29T21:03:11.117Z,99736.28
2022-07-29T21:05:41.582Z,99745.38
2022-07-29T21:08:11.461Z,99731.28
2022-07-29T21:10:39.023Z,99731.91
2022-07-29T21:13:08.798Z,99734.09
2022-07-29T21:15:36.679Z,99732.22
2022-07-29T21:18:06.268Z,99737.56
2022-07-29T21:20:33.838Z,99749.69
2022-07-29T21:23:01.436Z,99748.34
2022-07-29T21:25:29.344Z,99744.56
2022-07-29T21:28:14.463Z,99753.44
2022-07-29T21:30:42.054Z,99750.00
2022-07-29T21:33:12.344Z,99745.53
2022-07-29T21:36:10.545Z,99747.31
2022-07-29T21:38:27.733Z,99742.03
2022-07-29T21:40:55.712Z,99759.66
2022-07-29T21:43:26.580Z,99764.63
2022-07-29T21:45:54.450Z,99756.91
2022-07-29T21:48:23.061Z,99744.78
2022-07-29T21:50:55.091Z,99746.75
2022-07-29T21:53:23.246Z,99755.22
2022-07-29T21:55:55.314Z,99763.25
2022-07-29T21:58:24.567Z,99775.41
2022-07-29T22:00:54.564Z,99778.78
2022-07-29T22:03:22.242Z,99777.03
2022-07-29T22:05:49.790Z,99775.78
2022-07-29T22:08:19.699Z,99785.06
2022-07-29T22:10:49.773Z,99777.31
2022-07-29T22:13:32.902Z,99778.47
2022-07-29T22:16:04.584Z,99783.09
2022-07-29T22:18:32.165Z,99791.06
2022-07-29T22:21:02.260Z,99796.50
2022-07-29T22:23:29.940Z,99788.88
2022-07-29T22:25:59.990Z,99792.34
2022-07-29T22:28:27.651Z,99791.88
2022-07-29T22:30:57.681Z,99783.78
2022-07-29T22:33:25.320Z,99791.97
2022-07-29T22:35:52.918Z,99783.44
2022-07-29T22:38:20.917Z,99788.19
2022-07-29T22:40:51.278Z,99782.88
2022-07-29T22:43:19.015Z,99787.50
2022-07-29T22:45:46.679Z,99783.66
2022-07-29T22:48:14.262Z,99784.81
2022-07-29T22:50:41.950Z,99780.66
2022-07-29T22:53:11.897Z,99780.50
2022-07-29T22:55:39.483Z,99774.50
2022-07-29T22:58:07.234Z,99781.88
2022-07-29T23:00:37.280Z,99781.63
2022-07-29T23:03:05.017Z,99775.16
2022-07-29T23:05:32.600Z,99771.44
2022-07-29T23:08:00.223Z,99771.00
2022-07-29T23:10:28.281Z,99758.75
2022-07-29T23:12:55.889Z,99758.75
2022-07-29T23:15:23.711Z,99755.53
2022-07-29T23:17:51.318Z,99762.91
2022-07-29T23:20:19.167Z,99759.88
2022-07-29T23:22:46.741Z,99751.13
2022-07-29T23:25:14.398Z,99752.94
2022-07-29T23:27:42.247Z,99752.34
2022-07-29T23:30:12.720Z,99752.91
2022-07-29T23:32:40.335Z,99741.72
2022-07-29T23:35:11.804Z,99737.19
2022-07-29T23:37:39.451Z,99732.00
2022-07-29T23:40:13.680Z,99740.16
2022-07-29T23:42:46.980Z,99746.38
2022-07-29T23:45:15.152Z,99738.06
2022-07-29T23:47:45.168Z,99725.50
2022-07-29T23:50:16.903Z,99725.38
2022-07-29T23:52:45.545Z,99716.12
2022-07-29T23:55:36.331Z,99716.69
2022-07-29T23:58:04.908Z,99715.88
